Time;durP1;ratioP1;P1;durP2;ratioP2;P2;SDS_P1;SDS_P2;PMS_P1;PMS_P2;Temp;Humidity;BMP_temperature;BMP_pressure;BME280_temperature;BME280_humidity;BME280_pressure;Samples;Min_cycle;Max_cycle;Signal;HPM_P1;HPM_P2
2022/09/12 00:00:30;;;;;;;;;18.67;16.33;;;;;;;;5057262;28;45620;-70
2022/09/12 00:02:56;;;;;;;;;16.00;15.00;;;;;;;;5053542;28;46610;-70
2022/09/12 00:05:22;;;;;;;;;16.00;14.00;;;;;;;;5056335;28;45253;-70
2022/09/12 00:07:47;;;;;;;;;15.33;13.67;;;;;;;;5054466;28;45248;-70
2022/09/12 00:10:13;;;;;;;;;13.67;12.67;;;;;;;;5055806;28;45511;-70
2022/09/12 00:12:38;;;;;;;;;18.00;14.33;;;;;;;;5055508;28;45381;-70
2022/09/12 00:15:04;;;;;;;;;20.00;19.00;;;;;;;;5055764;28;45359;-70
2022/09/12 00:17:29;;;;;;;;;18.33;17.00;;;;;;;;5051470;28;45439;-70
2022/09/12 00:19:54;;;;;;;;;14.33;14.33;;;;;;;;5046342;28;45213;-70
2022/09/12 00:22:20;;;;;;;;;19.00;16.67;;;;;;;;5067296;28;46737;-70
2022/09/12 00:24:45;;;;;;;;;18.00;16.33;;;;;;;;5049668;28;45431;-70
2022/09/12 00:27:10;;;;;;;;;15.33;15.33;;;;;;;;5049471;28;45226;-70
2022/09/12 00:29:35;;;;;;;;;13.33;13.00;;;;;;;;5049996;28;45233;-70
2022/09/12 00:32:01;;;;;;;;;18.00;15.00;;;;;;;;5054951;28;45538;-70
2022/09/12 00:34:26;;;;;;;;;17.67;15.00;;;;;;;;5056683;28;45332;-70
2022/09/12 00:36:51;;;;;;;;;17.00;15.33;;;;;;;;5052184;28;45181;-70
2022/09/12 00:39:16;;;;;;;;;16.00;14.33;;;;;;;;5058115;27;45539;-70
2022/09/12 00:41:42;;;;;;;;;17.67;16.33;;;;;;;;5057016;28;47094;-70
2022/09/12 00:44:19;;;;;;;;;20.00;18.67;;;;;;;;5053519;28;45345;-70
2022/09/12 00:46:45;;;;;;;;;15.67;15.33;;;;;;;;5047956;28;45711;-70
2022/09/12 00:49:23;;;;;;;;;16.00;15.00;;;;;;;;5068438;28;47210;-71
2022/09/12 00:51:51;;;;;;;;;17.67;17.33;;;;;;;;5054371;28;46291;-70
2022/09/12 00:54:20;;;;;;;;;15.33;15.00;;;;;;;;5057851;28;44815;-70
2022/09/12 00:56:46;;;;;;;;;16.33;15.67;;;;;;;;5055427;28;45354;-70
2022/09/12 00:59:23;;;;;;;;;15.67;15.00;;;;;;;;5058477;28;45629;-70
2022/09/12 01:01:50;;;;;;;;;14.67;14.00;;;;;;;;5050374;28;45327;-70
2022/09/12 01:04:16;;;;;;;;;17.00;13.67;;;;;;;;5060128;28;45289;-70
2022/09/12 01:06:42;;;;;;;;;16.67;14.00;;;;;;;;5048584;28;45388;-70
2022/09/12 01:09:10;;;;;;;;;17.33;14.00;;;;;;;;5055956;28;45356;-70
2022/09/12 01:11:37;;;;;;;;;15.00;15.00;;;;;;;;5053476;28;45446;-70
2022/09/12 01:14:02;;;;;;;;;19.00;17.33;;;;;;;;5056953;28;45309;-70
2022/09/12 01:16:28;;;;;;;;;18.67;16.00;;;;;;;;5054928;28;45188;-70
2022/09/12 01:18:53;;;;;;;;;19.33;14.33;;;;;;;;5057713;28;45443;-70
2022/09/12 01:21:22;;;;;;;;;19.50;18.00;;;;;;;;5049481;28;45335;-70
2022/09/12 01:23:56;;;;;;;;;22.67;18.00;;;;;;;;5057224;28;45437;-70
2022/09/12 01:26:21;;;;;;;;;18.00;16.33;;;;;;;;5057386;28;45404;-70
2022/09/12 01:28:53;;;;;;;;;17.00;16.67;;;;;;;;5055041;28;45568;-70
2022/09/12 01:31:28;;;;;;;;;18.00;14.67;;;;;;;;5051051;28;45409;-71
2022/09/12 01:33:59;;;;;;;;;13.33;10.67;;;;;;;;5053363;28;45330;-70
2022/09/12 01:36:33;;;;;;;;;17.00;16.00;;;;;;;;5046753;28;45292;-70
2022/09/12 01:39:04;;;;;;;;;20.33;16.33;;;;;;;;5049375;28;45490;-71
2022/09/12 01:41:33;;;;;;;;;19.33;16.00;;;;;;;;5065624;28;45331;-71
2022/09/12 01:43:58;;;;;;;;;20.67;19.67;;;;;;;;5051578;28;45357;-70
2022/09/12 01:46:29;;;;;;;;;20.00;18.67;;;;;;;;5048897;28;45475;-70
2022/09/12 01:49:06;;;;;;;;;20.67;18.33;;;;;;;;5073878;28;45245;-70
2022/09/12 01:51:34;;;;;;;;;19.67;18.00;;;;;;;;5049134;28;46358;-70
2022/09/12 01:54:03;;;;;;;;;18.33;15.33;;;;;;;;5055131;28;45382;-70
2022/09/12 01:56:31;;;;;;;;;19.00;18.00;;;;;;;;5052100;27;45164;-70
2022/09/12 01:59:00;;;;;;;;;22.33;20.33;;;;;;;;5057185;28;45558;-70
2022/09/12 02:01:28;;;;;;;;;28.67;23.00;;;;;;;;5072151;28;47201;-70
2022/09/12 02:03:59;;;;;;;;;20.00;20.00;;;;;;;;5059418;28;45323;-70
2022/09/12 02:06:27;;;;;;;;;23.33;22.67;;;;;;;;5051572;28;45460;-70
2022/09/12 02:08:55;;;;;;;;;24.67;23.00;;;;;;;;5045172;28;45608;-70
2022/09/12 02:11:20;;;;;;;;;21.33;21.33;;;;;;;;5052775;28;45187;-70
2022/09/12 02:13:54;;;;;;;;;27.33;25.00;;;;;;;;5068581;28;45263;-70
2022/09/12 02:16:28;;;;;;;;;25.67;20.67;;;;;;;;5068549;28;45326;-70
2022/09/12 02:18:56;;;;;;;;;22.33;21.33;;;;;;;;5058714;28;45244;-70
2022/09/12 02:21:24;;;;;;;;;27.00;22.67;;;;;;;;5056204;28;46373;-70
2022/09/12 02:23:57;;;;;;;;;25.67;25.00;;;;;;;;5050033;28;45323;-70
2022/09/12 02:26:24;;;;;;;;;24.67;23.00;;;;;;;;5043629;28;45512;-70
2022/09/12 02:28:50;;;;;;;;;24.33;22.67;;;;;;;;5050020;28;45509;-70
2022/09/12 02:31:21;;;;;;;;;24.00;22.33;;;;;;;;5053531;28;46133;-70
2022/09/12 02:33:52;;;;;;;;;29.00;27.00;;;;;;;;5052431;28;45210;-70
2022/09/12 02:36:31;;;;;;;;;27.00;23.33;;;;;;;;5057038;28;45236;-70
2022/09/12 02:38:57;;;;;;;;;23.67;20.67;;;;;;;;5058717;28;45195;-71
2022/09/12 02:41:22;;;;;;;;;22.67;22.00;;;;;;;;5054953;28;45315;-70
2022/09/12 02:43:50;;;;;;;;;24.33;23.33;;;;;;;;5052912;28;45441;-70
2022/09/12 02:46:20;;;;;;;;;20.00;20.00;;;;;;;;5088191;27;45361;-70
2022/09/12 02:48:45;;;;;;;;;23.00;21.00;;;;;;;;5062494;28;45964;-70
2022/09/12 02:51:11;;;;;;;;;19.67;19.67;;;;;;;;5054654;28;46128;-70
2022/09/12 02:53:36;;;;;;;;;21.33;20.67;;;;;;;;5055727;28;45291;-70
2022/09/12 02:56:06;;;;;;;;;21.00;21.00;;;;;;;;5049721;28;45740;-70
2022/09/12 02:58:32;;;;;;;;;21.67;21.00;;;;;;;;5050743;28;45553;-70
2022/09/12 03:01:12;;;;;;;;;23.67;22.67;;;;;;;;5050747;28;45448;-70
2022/09/12 03:03:43;;;;;;;;;22.00;19.33;;;;;;;;5050916;28;45462;-70
2022/09/12 03:06:15;;;;;;;;;21.67;21.00;;;;;;;;5053499;28;45280;-70
2022/09/12 03:08:49;;;;;;;;;21.00;20.00;;;;;;;;5051653;28;45183;-70
2022/09/12 03:11:30;;;;;;;;;22.00;20.33;;;;;;;;5054784;28;45405;-70
2022/09/12 03:13:58;;;;;;;;;23.33;20.33;;;;;;;;5047956;28;45348;-70
2022/09/12 03:16:31;;;;;;;;;20.00;19.33;;;;;;;;5042758;28;45443;-70
2022/09/12 03:19:20;;;;;;;;;14.67;12.67;;;;;;;;5050089;28;45705;-70
2022/09/12 03:22:04;;;;;;;;;21.33;19.00;;;;;;;;5042980;28;47354;-70
2022/09/12 03:24:34;;;;;;;;;20.33;20.33;;;;;;;;5054017;28;45315;-70
2022/09/12 03:27:05;;;;;;;;;18.33;18.33;;;;;;;;5046584;28;45828;-70
2022/09/12 03:29:30;;;;;;;;;21.67;20.33;;;;;;;;5056022;28;45315;-70
2022/09/12 03:31:56;;;;;;;;;20.67;18.67;;;;;;;;5054849;28;45330;-70
2022/09/12 03:34:22;;;;;;;;;20.67;18.33;;;;;;;;5054004;28;45411;-70
2022/09/12 03:36:48;;;;;;;;;19.33;17.67;;;;;;;;5055863;28;45763;-70
2022/09/12 03:39:13;;;;;;;;;22.00;20.00;;;;;;;;5059900;28;45316;-70
2022/09/12 03:41:39;;;;;;;;;18.00;16.67;;;;;;;;5042454;28;46151;-70
2022/09/12 03:44:04;;;;;;;;;20.67;18.67;;;;;;;;5060544;28;45266;-70
2022/09/12 03:46:29;;;;;;;;;24.00;19.00;;;;;;;;5048648;28;45530;-70
2022/09/12 03:48:55;;;;;;;;;17.33;17.33;;;;;;;;5057381;28;45405;-70
2022/09/12 03:51:20;;;;;;;;;16.00;14.00;;;;;;;;5052089;28;45466;-70
2022/09/12 03:53:45;;;;;;;;;21.67;20.00;;;;;;;;5094348;27;45189;-70
2022/09/12 03:56:11;;;;;;;;;17.33;17.33;;;;;;;;5055499;28;45228;-70
2022/09/12 03:58:37;;;;;;;;;18.67;18.00;;;;;;;;5054756;28;45473;-70
2022/09/12 04:01:12;;;;;;;;;17.33;16.00;;;;;;;;5059410;28;45917;-70
2022/09/12 04:03:38;;;;;;;;;22.00;20.67;;;;;;;;5055211;28;45457;-70
2022/09/12 04:06:03;;;;;;;;;16.00;14.00;;;;;;;;5052592;28;45330;-70
2022/09/12 04:08:29;;;;;;;;;24.00;18.67;;;;;;;;5089181;27;46100;-70
2022/09/12 04:11:00;;;;;;;;;19.67;19.67;;;;;;;;5059297;28;45229;-70
2022/09/12 04:13:25;;;;;;;;;22.00;19.67;;;;;;;;5059316;28;45442;-70
2022/09/12 04:15:58;;;;;;;;;18.00;18.00;;;;;;;;5072469;28;45276;-70
2022/09/12 04:18:24;;;;;;;;;18.00;18.00;;;;;;;;5075042;28;45825;-70
2022/09/12 04:20:49;;;;;;;;;19.33;19.00;;;;;;;;5075218;28;45476;-70
2022/09/12 04:23:14;;;;;;;;;16.67;15.00;;;;;;;;5056527;28;45291;-70
2022/09/12 04:25:39;;;;;;;;;16.00;15.00;;;;;;;;5050222;28;45163;-70
2022/09/12 04:28:04;;;;;;;;;17.00;15.33;;;;;;;;5056659;28;45411;-70
2022/09/12 04:30:30;;;;;;;;;17.67;17.67;;;;;;;;5043964;28;46769;-70
2022/09/12 04:32:55;;;;;;;;;18.00;17.00;;;;;;;;5053957;28;45501;-70
2022/09/12 04:35:20;;;;;;;;;22.67;19.00;;;;;;;;5061591;28;45285;-70
2022/09/12 04:37:45;;;;;;;;;17.67;17.33;;;;;;;;5052561;28;45366;-70
2022/09/12 04:40:11;;;;;;;;;19.00;17.00;;;;;;;;5053674;28;45212;-70
2022/09/12 04:42:36;;;;;;;;;19.67;15.00;;;;;;;;5051075;28;45418;-70
2022/09/12 04:45:02;;;;;;;;;19.67;16.00;;;;;;;;5058999;28;45402;-70
2022/09/12 04:47:27;;;;;;;;;16.67;16.67;;;;;;;;5050412;28;45544;-70
2022/09/12 04:49:52;;;;;;;;;22.67;20.67;;;;;;;;5060697;28;45367;-70
2022/09/12 04:52:18;;;;;;;;;21.33;21.00;;;;;;;;5050378;28;45383;-70
2022/09/12 04:54:43;;;;;;;;;22.00;21.00;;;;;;;;5049578;28;45408;-70
2022/09/12 04:57:09;;;;;;;;;22.67;20.00;;;;;;;;5081565;27;45285;-70
2022/09/12 04:59:34;;;;;;;;;21.67;19.33;;;;;;;;5050217;28;46325;-70
2022/09/12 05:01:59;;;;;;;;;20.00;18.67;;;;;;;;5082336;27;45391;-70
2022/09/12 05:04:24;;;;;;;;;20.33;18.00;;;;;;;;5085576;27;45257;-70
2022/09/12 05:06:50;;;;;;;;;22.00;19.33;;;;;;;;5053689;28;45497;-70
2022/09/12 05:09:15;;;;;;;;;21.33;19.33;;;;;;;;5089888;27;46408;-70
2022/09/12 05:11:42;;;;;;;;;22.67;19.00;;;;;;;;5052914;28;45419;-70
2022/09/12 05:14:08;;;;;;;;;20.33;19.00;;;;;;;;5065748;28;45231;-70
2022/09/12 05:16:33;;;;;;;;;19.00;18.67;;;;;;;;5058070;28;45604;-70
2022/09/12 05:18:59;;;;;;;;;23.00;18.33;;;;;;;;5056546;28;45410;-70
2022/09/12 05:21:25;;;;;;;;;19.67;17.33;;;;;;;;5069938;28;45272;-70
2022/09/12 05:23:51;;;;;;;;;21.67;20.33;;;;;;;;5056063;28;45188;-70
2022/09/12 05:26:17;;;;;;;;;20.33;17.00;;;;;;;;5069173;28;45964;-70
2022/09/12 05:28:43;;;;;;;;;18.00;18.00;;;;;;;;5049967;28;45325;-70
2022/09/12 05:31:18;;;;;;;;;20.67;19.67;;;;;;;;5053188;28;45287;-70
2022/09/12 05:33:45;;;;;;;;;20.00;18.00;;;;;;;;5051089;28;45344;-70
2022/09/12 05:36:12;;;;;;;;;19.67;18.33;;;;;;;;5053554;28;45449;-70
2022/09/12 05:38:37;;;;;;;;;21.33;19.33;;;;;;;;5052062;28;45336;-70
2022/09/12 05:41:07;;;;;;;;;16.33;16.33;;;;;;;;5051258;28;45328;-70
2022/09/12 05:43:32;;;;;;;;;20.00;17.67;;;;;;;;5053854;28;45320;-70
2022/09/12 05:46:01;;;;;;;;;23.00;19.00;;;;;;;;5057549;28;45346;-70
2022/09/12 05:48:27;;;;;;;;;21.67;18.67;;;;;;;;5087214;27;45765;-71
2022/09/12 05:50:57;;;;;;;;;17.00;15.33;;;;;;;;5045988;28;45240;-71
2022/09/12 05:53:27;;;;;;;;;20.00;18.67;;;;;;;;5052102;28;45461;-71
2022/09/12 05:56:00;;;;;;;;;18.33;17.33;;;;;;;;5048370;28;45378;-71
2022/09/12 05:58:25;;;;;;;;;22.33;19.67;;;;;;;;5052842;28;45374;-72
2022/09/12 06:00:50;;;;;;;;;21.00;18.00;;;;;;;;5049197;28;45450;-71
2022/09/12 06:03:16;;;;;;;;;20.00;16.33;;;;;;;;5059050;28;45526;-72
2022/09/12 06:05:41;;;;;;;;;20.33;17.33;;;;;;;;5055589;27;45439;-72
2022/09/12 06:08:06;;;;;;;;;20.00;17.00;;;;;;;;5055426;28;46020;-72
2022/09/12 06:10:34;;;;;;;;;20.67;18.67;;;;;;;;5057307;28;45225;-71
2022/09/12 06:12:59;;;;;;;;;16.00;15.00;;;;;;;;5070294;28;45339;-70
2022/09/12 06:15:24;;;;;;;;;22.00;19.67;;;;;;;;5050954;28;45361;-71
2022/09/12 06:17:50;;;;;;;;;18.67;17.67;;;;;;;;5053882;28;46201;-70
2022/09/12 06:20:15;;;;;;;;;19.00;17.33;;;;;;;;5054030;27;45297;-71
2022/09/12 06:22:41;;;;;;;;;16.67;16.67;;;;;;;;5048065;28;45378;-71
2022/09/12 06:25:07;;;;;;;;;18.00;18.00;;;;;;;;5053930;28;45509;-72
2022/09/12 06:27:32;;;;;;;;;16.33;15.00;;;;;;;;5049500;28;45246;-71
2022/09/12 06:29:58;;;;;;;;;17.67;16.67;;;;;;;;5057002;28;45307;-72
2022/09/12 06:32:23;;;;;;;;;20.00;17.33;;;;;;;;5067174;28;45435;-71
2022/09/12 06:34:49;;;;;;;;;20.67;20.67;;;;;;;;5055565;28;45610;-71
2022/09/12 06:37:14;;;;;;;;;18.67;15.67;;;;;;;;5070303;28;46043;-71
2022/09/12 06:39:40;;;;;;;;;18.33;17.00;;;;;;;;5054401;28;45391;-71
2022/09/12 06:42:05;;;;;;;;;22.33;19.33;;;;;;;;5050774;28;45441;-71
2022/09/12 06:44:30;;;;;;;;;15.33;15.33;;;;;;;;5058032;28;45495;-71
2022/09/12 06:46:57;;;;;;;;;19.67;18.00;;;;;;;;5051184;28;46600;-71
2022/09/12 06:49:22;;;;;;;;;18.00;18.00;;;;;;;;5054217;28;45375;-70
2022/09/12 06:51:47;;;;;;;;;20.33;17.67;;;;;;;;5052200;28;45376;-71
2022/09/12 06:54:14;;;;;;;;;16.67;16.33;;;;;;;;5054445;28;45220;-69
2022/09/12 06:56:39;;;;;;;;;19.00;17.33;;;;;;;;5044541;28;45281;-72
2022/09/12 06:59:05;;;;;;;;;21.00;20.00;;;;;;;;5058066;28;45390;-71
2022/09/12 07:01:31;;;;;;;;;23.67;21.00;;;;;;;;5046394;28;45378;-71
2022/09/12 07:03:59;;;;;;;;;17.33;17.00;;;;;;;;5055004;28;45296;-71
2022/09/12 07:06:30;;;;;;;;;22.33;18.67;;;;;;;;5063311;28;46101;-71
2022/09/12 07:08:59;;;;;;;;;17.67;16.33;;;;;;;;5058745;28;45521;-71
2022/09/12 07:11:25;;;;;;;;;20.67;19.33;;;;;;;;5056432;28;45465;-72
2022/09/12 07:13:52;;;;;;;;;18.67;18.67;;;;;;;;5061452;28;45419;-71
2022/09/12 07:16:17;;;;;;;;;21.00;18.00;;;;;;;;5060212;28;46358;-71
2022/09/12 07:18:45;;;;;;;;;19.00;18.00;;;;;;;;5061815;27;45473;-71
2022/09/12 07:21:10;;;;;;;;;20.00;18.67;;;;;;;;5060397;28;45228;-71
2022/09/12 07:23:36;;;;;;;;;19.00;16.33;;;;;;;;5061233;28;46532;-70
2022/09/12 07:26:02;;;;;;;;;26.33;22.33;;;;;;;;5052404;28;46126;-71
2022/09/12 07:28:28;;;;;;;;;23.67;22.00;;;;;;;;5055722;28;45307;-70
2022/09/12 07:30:53;;;;;;;;;21.00;18.33;;;;;;;;5047708;28;45501;-70
2022/09/12 07:33:19;;;;;;;;;22.67;18.33;;;;;;;;5089277;27;45525;-72
2022/09/12 07:35:44;;;;;;;;;19.67;19.67;;;;;;;;5053737;28;45259;-72
2022/09/12 07:38:10;;;;;;;;;20.33;18.67;;;;;;;;5053775;28;45466;-71
2022/09/12 07:40:35;;;;;;;;;24.67;22.00;;;;;;;;5055681;27;45325;-70
2022/09/12 07:43:00;;;;;;;;;19.00;19.00;;;;;;;;5048664;28;45157;-70
2022/09/12 07:45:25;;;;;;;;;26.67;24.67;;;;;;;;5045638;28;45439;-70
2022/09/12 07:47:52;;;;;;;;;24.67;22.00;;;;;;;;5054065;28;45314;-71
2022/09/12 07:50:18;;;;;;;;;23.67;18.00;;;;;;;;5055040;28;45514;-71
2022/09/12 07:52:43;;;;;;;;;19.00;19.00;;;;;;;;5055125;28;45241;-70
2022/09/12 07:55:08;;;;;;;;;20.67;16.67;;;;;;;;5050961;28;46287;-70
2022/09/12 07:57:33;;;;;;;;;21.00;14.67;;;;;;;;5050719;28;46064;-71
2022/09/12 07:59:59;;;;;;;;;18.67;18.33;;;;;;;;5051313;28;45460;-71
2022/09/12 08:02:24;;;;;;;;;20.67;19.67;;;;;;;;5054205;28;46203;-70
2022/09/12 08:04:50;;;;;;;;;22.00;21.00;;;;;;;;5058578;28;46460;-70
2022/09/12 08:07:17;;;;;;;;;20.33;20.33;;;;;;;;5050658;28;45463;-70
2022/09/12 08:09:42;;;;;;;;;23.00;19.33;;;;;;;;5049703;28;45249;-70
2022/09/12 08:12:07;;;;;;;;;21.00;19.00;;;;;;;;5057647;28;45322;-70
2022/09/12 08:14:32;;;;;;;;;22.33;20.00;;;;;;;;5058744;28;46335;-70
2022/09/12 08:16:57;;;;;;;;;24.67;22.00;;;;;;;;5071225;28;45304;-69
2022/09/12 08:19:23;;;;;;;;;20.00;19.67;;;;;;;;5067030;28;45560;-68
2022/09/12 08:21:48;;;;;;;;;26.00;20.00;;;;;;;;5045646;28;45492;-70
2022/09/12 08:24:14;;;;;;;;;20.00;20.00;;;;;;;;5051357;28;46084;-69
2022/09/12 08:26:39;;;;;;;;;22.67;20.33;;;;;;;;5048649;28;45434;-69
2022/09/12 08:29:05;;;;;;;;;17.67;17.33;;;;;;;;5053896;28;45460;-70
2022/09/12 08:31:36;;;;;;;;;21.33;20.33;;;;;;;;5081033;27;46004;-71
2022/09/12 08:34:05;;;;;;;;;21.00;21.00;;;;;;;;5051164;28;46217;-71
2022/09/12 08:36:30;;;;;;;;;20.67;16.67;;;;;;;;5056748;28;45375;-70
2022/09/12 08:38:57;;;;;;;;;18.00;15.33;;;;;;;;5056586;28;45276;-71
2022/09/12 08:41:29;;;;;;;;;18.67;16.33;;;;;;;;5053804;28;45458;-70
2022/09/12 08:43:57;;;;;;;;;22.00;20.67;;;;;;;;5052575;28;45943;-72
2022/09/12 08:46:36;;;;;;;;;20.33;19.33;;;;;;;;5069210;28;45720;-71
2022/09/12 08:49:03;;;;;;;;;22.67;21.00;;;;;;;;5057502;28;44747;-70
2022/09/12 08:51:31;;;;;;;;;20.33;18.67;;;;;;;;5056544;28;45695;-70
2022/09/12 08:53:57;;;;;;;;;22.00;19.67;;;;;;;;5050367;28;45355;-70
2022/09/12 08:56:23;;;;;;;;;19.33;16.00;;;;;;;;5044331;28;45411;-70
2022/09/12 08:58:49;;;;;;;;;24.00;20.33;;;;;;;;5084335;27;45445;-70
2022/09/12 09:01:31;;;;;;;;;18.00;15.67;;;;;;;;5046720;28;45150;-70
2022/09/12 09:04:16;;;;;;;;;23.33;23.00;;;;;;;;5069274;28;47353;-70
2022/09/12 09:06:41;;;;;;;;;23.67;18.67;;;;;;;;5063116;28;45346;-70
2022/09/12 09:09:07;;;;;;;;;18.25;15.75;;;;;;;;5058056;28;45462;-71
2022/09/12 09:11:38;;;;;;;;;18.33;17.67;;;;;;;;5055280;28;45486;-72
2022/09/12 09:16:58;;;;;;;;;19.00;18.67;;;;;;;;5054151;28;45550;-69
2022/09/12 09:19:47;;;;;;;;;16.00;15.00;;;;;;;;5047713;28;45351;-69
2022/09/12 09:22:21;;;;;;;;;47.00;40.00;;;;;;;;5046880;28;45510;-71
2022/09/12 09:24:52;;;;;;;;;28.33;27.67;;;;;;;;5054071;28;45336;-71
2022/09/12 09:27:27;;;;;;;;;20.33;17.33;;;;;;;;5051073;28;45455;-71
2022/09/12 09:29:54;;;;;;;;;16.00;15.75;;;;;;;;5055040;28;45178;-71
2022/09/12 09:32:27;;;;;;;;;13.75;12.75;;;;;;;;5052963;28;45453;-69
2022/09/12 09:34:52;;;;;;;;;17.25;16.25;;;;;;;;5057150;28;45322;-69
2022/09/12 09:37:18;;;;;;;;;12.00;10.50;;;;;;;;5067661;28;45814;-69
2022/09/12 09:40:01;;;;;;;;;13.25;10.25;;;;;;;;5058928;28;45284;-69
2022/09/12 09:42:33;;;;;;;;;13.75;12.00;;;;;;;;5050868;28;47573;-69
2022/09/12 09:44:59;;;;;;;;;16.25;12.75;;;;;;;;5051132;28;46370;-69
2022/09/12 09:47:24;;;;;;;;;27.25;27.25;;;;;;;;5080435;27;45306;-70
2022/09/12 09:49:50;;;;;;;;;20.00;16.50;;;;;;;;5058875;28;45426;-70
2022/09/12 09:52:19;;;;;;;;;14.75;13.50;;;;;;;;5057084;28;45414;-70
2022/09/12 09:55:04;;;;;;;;;17.00;16.00;;;;;;;;5053698;28;46195;-69
2022/09/12 09:57:32;;;;;;;;;9.40;9.40;;;;;;;;5046934;28;45426;-70
2022/09/12 09:59:57;;;;;;;;;13.00;11.75;;;;;;;;5072716;28;45339;-69
2022/09/12 10:02:24;;;;;;;;;13.75;12.00;;;;;;;;5048661;28;45347;-69
2022/09/12 10:04:54;;;;;;;;;18.75;15.75;;;;;;;;5055711;28;46160;-70
2022/09/12 10:07:20;;;;;;;;;10.20;10.20;;;;;;;;5052168;28;45391;-69
2022/09/12 10:10:06;;;;;;;;;9.20;7.60;;;;;;;;5049214;28;45180;-69
2022/09/12 10:12:32;;;;;;;;;6.60;6.00;;;;;;;;5048667;28;45442;-70
2022/09/12 10:14:59;;;;;;;;;6.75;6.75;;;;;;;;5055547;28;47499;-70
2022/09/12 10:17:28;;;;;;;;;5.00;5.00;;;;;;;;5055926;28;45264;-72
2022/09/12 10:19:54;;;;;;;;;6.40;6.20;;;;;;;;5052254;28;45397;-72
2022/09/12 10:22:25;;;;;;;;;6.75;6.75;;;;;;;;5057646;28;45355;-70
2022/09/12 10:24:52;;;;;;;;;6.40;6.40;;;;;;;;5056745;28;47026;-71
2022/09/12 10:27:22;;;;;;;;;6.00;6.00;;;;;;;;5051122;28;45507;-71
2022/09/12 10:29:59;;;;;;;;;5.40;5.40;;;;;;;;5055079;28;45656;-71
2022/09/12 10:32:24;;;;;;;;;6.20;6.20;;;;;;;;5056020;28;45453;-71
2022/09/12 10:34:51;;;;;;;;;7.25;6.25;;;;;;;;5058537;28;46507;-72
2022/09/12 10:37:19;;;;;;;;;5.60;5.60;;;;;;;;5049055;28;45229;-72
2022/09/12 10:39:52;;;;;;;;;9.20;7.20;;;;;;;;5051667;28;45344;-72
2022/09/12 10:42:37;;;;;;;;;6.40;6.40;;;;;;;;5050097;28;45291;-72
2022/09/12 10:45:03;;;;;;;;;5.00;3.40;;;;;;;;5054807;28;45367;-72
2022/09/12 10:47:29;;;;;;;;;3.50;3.50;;;;;;;;5054643;28;45277;-72
2022/09/12 10:50:14;;;;;;;;;2.00;2.00;;;;;;;;5058915;28;45390;-72
2022/09/12 10:52:40;;;;;;;;;4.20;3.80;;;;;;;;5055897;28;45553;-72
2022/09/12 10:55:08;;;;;;;;;3.50;3.50;;;;;;;;5058743;28;46432;-71
2022/09/12 10:57:45;;;;;;;;;3.40;3.20;;;;;;;;5053329;28;45324;-70
2022/09/12 11:00:16;;;;;;;;;3.00;1.40;;;;;;;;5051181;28;45297;-69
2022/09/12 11:02:49;;;;;;;;;3.20;3.20;;;;;;;;5056006;28;45427;-70
2022/09/12 11:05:35;;;;;;;;;3.00;3.00;;;;;;;;5048245;28;45696;-70
2022/09/12 11:08:16;;;;;;;;;4.00;3.00;;;;;;;;5048914;28;45434;-71
2022/09/12 11:10:47;;;;;;;;;2.40;2.40;;;;;;;;5053124;28;46664;-73
2022/09/12 11:13:20;;;;;;;;;2.20;2.20;;;;;;;;5052073;28;45428;-71
2022/09/12 11:16:21;;;;;;;;;4.20;2.80;;;;;;;;5053809;28;45312;-70
2022/09/12 11:19:05;;;;;;;;;3.00;2.20;;;;;;;;4992861;28;45678;-70
2022/09/12 11:21:37;;;;;;;;;2.20;1.80;;;;;;;;5049580;28;45602;-70
2022/09/12 11:24:26;;;;;;;;;2.20;2.20;;;;;;;;5062413;28;47318;-73
2022/09/12 11:26:54;;;;;;;;;4.20;2.60;;;;;;;;5035998;28;46289;-71
2022/09/12 11:29:25;;;;;;;;;2.80;2.80;;;;;;;;5046883;28;45296;-71
2022/09/12 11:32:22;;;;;;;;;2.60;2.40;;;;;;;;5065735;28;45444;-71
2022/09/12 11:34:48;;;;;;;;;3.00;3.00;;;;;;;;5053846;28;45490;-70
2022/09/12 11:37:29;;;;;;;;;2.80;2.60;;;;;;;;5048607;28;46160;-71
2022/09/12 11:39:55;;;;;;;;;1.80;1.80;;;;;;;;5070556;28;45326;-71
2022/09/12 11:42:24;;;;;;;;;4.00;4.00;;;;;;;;5049241;28;46101;-71
2022/09/12 11:45:08;;;;;;;;;13.60;13.00;;;;;;;;5050923;28;45336;-70
2022/09/12 11:47:35;;;;;;;;;7.60;7.40;;;;;;;;5045802;28;45674;-71
2022/09/12 11:50:02;;;;;;;;;2.00;2.00;;;;;;;;5055322;28;45276;-70
2022/09/12 11:52:33;;;;;;;;;10.80;8.80;;;;;;;;5056663;28;45342;-71
2022/09/12 11:55:02;;;;;;;;;4.00;4.00;;;;;;;;5057426;28;45437;-71
2022/09/12 11:57:29;;;;;;;;;2.20;2.20;;;;;;;;5059625;28;45426;-70
2022/09/12 12:00:03;;;;;;;;;1.40;1.40;;;;;;;;5061673;28;45181;-71
2022/09/12 12:02:30;;;;;;;;;2.40;1.60;;;;;;;;5059126;28;45289;-70
2022/09/12 12:05:13;;;;;;;;;2.20;2.20;;;;;;;;5057523;28;45600;-70
2022/09/12 12:07:47;;;;;;;;;1.00;1.00;;;;;;;;5057667;28;45462;-70
2022/09/12 12:10:23;;;;;;;;;4.80;3.40;;;;;;;;5060944;28;45399;-70
2022/09/12 12:12:49;;;;;;;;;2.00;2.00;;;;;;;;5057095;28;45501;-71
2022/09/12 12:15:15;;;;;;;;;11.00;9.80;;;;;;;;5054730;28;46075;-70
2022/09/12 12:17:40;;;;;;;;;8.20;8.20;;;;;;;;5058702;28;45395;-70
2022/09/12 12:20:14;;;;;;;;;3.00;1.75;;;;;;;;5055991;28;45328;-70
2022/09/12 12:22:49;;;;;;;;;2.20;1.40;;;;;;;;5058216;28;45306;-71
2022/09/12 12:25:15;;;;;;;;;2.20;2.20;;;;;;;;5052698;28;46418;-71
2022/09/12 12:27:43;;;;;;;;;3.75;3.75;;;;;;;;5053664;28;46252;-71
2022/09/12 12:30:27;;;;;;;;;1.80;1.80;;;;;;;;5058023;28;45564;-71
2022/09/12 12:32:58;;;;;;;;;1.20;1.20;;;;;;;;5047954;28;45432;-71
2022/09/12 12:35:36;;;;;;;;;0.20;0.20;;;;;;;;5051547;28;47350;-72
2022/09/12 12:38:02;;;;;;;;;1.00;1.00;;;;;;;;5050275;28;45436;-71
2022/09/12 12:40:29;;;;;;;;;4.60;3.20;;;;;;;;5056198;28;45585;-71
2022/09/12 12:42:57;;;;;;;;;2.00;1.20;;;;;;;;5052405;28;45395;-71
2022/09/12 12:45:28;;;;;;;;;1.20;1.20;;;;;;;;5058214;28;45428;-71
2022/09/12 12:47:56;;;;;;;;;3.80;1.00;;;;;;;;5061959;28;46332;-71
2022/09/12 12:50:25;;;;;;;;;2.40;1.20;;;;;;;;5050608;28;45407;-71
2022/09/12 12:52:55;;;;;;;;;2.60;1.20;;;;;;;;5047969;28;45454;-72
2022/09/12 12:55:25;;;;;;;;;3.20;2.00;;;;;;;;5048031;28;45545;-71
2022/09/12 12:57:51;;;;;;;;;2.00;2.00;;;;;;;;5070555;28;47779;-71
2022/09/12 13:00:19;;;;;;;;;3.20;3.20;;;;;;;;5055101;28;45459;-71
2022/09/12 13:03:00;;;;;;;;;2.60;2.60;;;;;;;;5056035;28;45693;-71
2022/09/12 13:05:26;;;;;;;;;1.60;1.60;;;;;;;;5057343;28;47140;-71
2022/09/12 13:07:53;;;;;;;;;1.40;1.40;;;;;;;;5067363;28;47243;-72
2022/09/12 13:10:23;;;;;;;;;0.80;0.80;;;;;;;;5053802;28;45279;-71
2022/09/12 13:12:49;;;;;;;;;0.20;0.20;;;;;;;;5053118;28;45470;-71
2022/09/12 13:15:47;;;;;;;;;0.00;0.00;;;;;;;;5046668;28;45977;-72
2022/09/12 13:18:15;;;;;;;;;2.00;0.20;;;;;;;;5042358;28;46883;-71
2022/09/12 13:20:46;;;;;;;;;1.40;1.40;;;;;;;;5046435;28;45510;-71
2022/09/12 13:23:22;;;;;;;;;0.20;0.20;;;;;;;;5054643;28;45412;-72
2022/09/12 13:25:55;;;;;;;;;0.00;0.00;;;;;;;;5047320;28;45472;-72
2022/09/12 13:28:20;;;;;;;;;1.20;1.20;;;;;;;;5052543;28;46469;-71
2022/09/12 13:31:00;;;;;;;;;1.25;1.00;;;;;;;;5056127;28;45232;-72
2022/09/12 13:33:25;;;;;;;;;1.00;1.00;;;;;;;;5056536;28;45520;-72
2022/09/12 13:35:57;;;;;;;;;0.75;0.75;;;;;;;;5058087;28;45412;-72
2022/09/12 13:38:30;;;;;;;;;1.20;1.20;;;;;;;;5053806;28;46492;-72
2022/09/12 13:41:15;;;;;;;;;0.20;0.20;;;;;;;;5058296;28;45217;-71
2022/09/12 13:43:45;;;;;;;;;1.40;1.40;;;;;;;;5053491;28;45290;-72
2022/09/12 13:46:13;;;;;;;;;0.80;0.80;;;;;;;;5046896;28;45648;-71
2022/09/12 13:48:39;;;;;;;;;1.00;1.00;;;;;;;;5053976;28;45453;-72
2022/09/12 13:51:05;;;;;;;;;0.50;0.50;;;;;;;;5055260;28;46093;-72
2022/09/12 13:53:39;;;;;;;;;2.75;1.25;;;;;;;;5071121;28;45314;-72
2022/09/12 13:56:04;;;;;;;;;2.00;1.40;;;;;;;;5052566;28;45508;-72
2022/09/12 13:58:31;;;;;;;;;2.25;1.00;;;;;;;;5050809;28;45428;-72
2022/09/12 14:01:09;;;;;;;;;1.40;1.40;;;;;;;;5056130;28;45347;-72
2022/09/12 14:06:26;;;;;;;;;3.80;2.20;;;;;;;;5052514;28;45519;-72
2022/09/12 14:08:52;;;;;;;;;0.20;0.20;;;;;;;;5057395;28;45454;-72
2022/09/12 14:11:21;;;;;;;;;0.75;0.75;;;;;;;;5054682;28;45495;-72
2022/09/12 14:13:47;;;;;;;;;1.20;1.20;;;;;;;;5063839;28;45351;-72
2022/09/12 14:16:15;;;;;;;;;2.00;2.00;;;;;;;;5053985;28;45498;-71
2022/09/12 14:18:43;;;;;;;;;1.40;1.40;;;;;;;;5054163;28;45379;-71
2022/09/12 14:21:11;;;;;;;;;0.20;0.20;;;;;;;;5052592;28;45213;-71
2022/09/12 14:23:40;;;;;;;;;1.40;0.60;;;;;;;;5055974;28;45493;-71
2022/09/12 14:26:08;;;;;;;;;0.00;0.00;;;;;;;;5054648;28;45895;-71
2022/09/12 14:28:34;;;;;;;;;1.00;1.00;;;;;;;;5057478;28;45233;-71
2022/09/12 14:31:02;;;;;;;;;3.80;2.20;;;;;;;;5048023;28;45893;-72
2022/09/12 14:33:27;;;;;;;;;17.00;12.80;;;;;;;;5050376;28;45458;-71
2022/09/12 14:36:05;;;;;;;;;4.00;3.00;;;;;;;;5057157;28;45565;-71
2022/09/12 14:38:33;;;;;;;;;0.80;0.00;;;;;;;;5067185;28;48356;-72